Anchorage, Alaska
Current Conditions -  °F | °C
As of 12:53 PM on Sunday 21 Dec 2014 (Local Time) from PANC Reporting Station
Light Snow Light Snow  
Wind Chill: 26°   Ceiling: 2000
Heat Index: 26°   Visibility: 3mi
Dew Point: 23°   Wind: 3mph
Humidity: 88%   Direction: 20°NNE
Pressure: 29.28"   Gusts: NA
Location:  61.16°N, 150.01°W
Report Text: PANC 212153Z 02003KT 3SM -SN BR OVC020 M03/M05 A2928 RMK AO2 SLP916 P0002 T10331050
Loading
Personal Weather Stations






























Interactive Weather Map New forecast layout! Learn more

10-Day Weather Forecast

Advertisements
Track Severe Weather on mobile